sensor_id;sensor_type;location;lat;lon;timestamp;P1;durP1;ratioP1;P2;durP2;ratioP2
47812;SDS011;34221;45.296;9.516;2022-10-22T00:00:00;28.90;;;20.85;;
47812;SDS011;34221;45.296;9.516;2022-10-22T00:00:19;28.92;;;21.25;;
47812;SDS011;34221;45.296;9.516;2022-10-22T00:00:35;32.13;;;20.67;;
47812;SDS011;34221;45.296;9.516;2022-10-22T00:00:51;33.38;;;21.77;;
47812;SDS011;34221;45.296;9.516;2022-10-22T00:01:06;31.48;;;22.10;;
47812;SDS011;34221;45.296;9.516;2022-10-22T00:01:22;30.42;;;19.80;;
47812;SDS011;34221;45.296;9.516;2022-10-22T00:01:38;32.42;;;19.88;;
47812;SDS011;34221;45.296;9.516;2022-10-22T00:01:53;31.90;;;20.90;;
47812;SDS011;34221;45.296;9.516;2022-10-22T00:02:08;29.33;;;20.98;;
47812;SDS011;34221;45.296;9.516;2022-10-22T00:02:25;30.10;;;20.70;;
47812;SDS011;34221;45.296;9.516;2022-10-22T00:02:41;29.60;;;19.98;;
47812;SDS011;34221;45.296;9.516;2022-10-22T00:02:57;28.13;;;19.98;;
47812;SDS011;34221;45.296;9.516;2022-10-22T00:03:12;28.23;;;20.63;;
47812;SDS011;34221;45.296;9.516;2022-10-22T00:03:27;29.52;;;21.20;;
47812;SDS011;34221;45.296;9.516;2022-10-22T00:03:43;30.00;;;20.83;;
47812;SDS011;34221;45.296;9.516;2022-10-22T00:03:58;32.90;;;21.15;;
47812;SDS011;34221;45.296;9.516;2022-10-22T00:04:14;33.40;;;21.45;;
47812;SDS011;34221;45.296;9.516;2022-10-22T00:04:29;30.73;;;21.02;;
47812;SDS011;34221;45.296;9.516;2022-10-22T00:04:45;30.60;;;20.77;;
47812;SDS011;34221;45.296;9.516;2022-10-22T00:05:01;31.73;;;20.75;;
47812;SDS011;34221;45.296;9.516;2022-10-22T00:05:17;32.40;;;21.83;;
47812;SDS011;34221;45.296;9.516;2022-10-22T00:05:33;32.58;;;22.50;;
47812;SDS011;34221;45.296;9.516;2022-10-22T00:05:48;30.83;;;21.07;;
47812;SDS011;34221;45.296;9.516;2022-10-22T00:06:04;29.00;;;19.83;;
47812;SDS011;34221;45.296;9.516;2022-10-22T00:06:20;27.92;;;19.80;;
47812;SDS011;34221;45.296;9.516;2022-10-22T00:06:35;27.58;;;20.13;;
47812;SDS011;34221;45.296;9.516;2022-10-22T00:06:50;29.20;;;20.83;;
47812;SDS011;34221;45.296;9.516;2022-10-22T00:07:06;31.45;;;21.23;;
47812;SDS011;34221;45.296;9.516;2022-10-22T00:07:21;33.60;;;21.80;;
47812;SDS011;34221;45.296;9.516;2022-10-22T00:07:39;30.63;;;21.52;;
47812;SDS011;34221;45.296;9.516;2022-10-22T00:07:54;28.52;;;21.05;;
47812;SDS011;34221;45.296;9.516;2022-10-22T00:08:09;27.60;;;20.95;;
47812;SDS011;34221;45.296;9.516;2022-10-22T00:08:25;29.67;;;20.55;;
47812;SDS011;34221;45.296;9.516;2022-10-22T00:08:41;31.98;;;20.77;;
47812;SDS011;34221;45.296;9.516;2022-10-22T00:08:56;31.65;;;20.92;;
47812;SDS011;34221;45.296;9.516;2022-10-22T00:09:11;31.08;;;20.63;;
47812;SDS011;34221;45.296;9.516;2022-10-22T00:09:27;31.30;;;21.08;;
47812;SDS011;34221;45.296;9.516;2022-10-22T00:09:42;27.38;;;19.35;;
47812;SDS011;34221;45.296;9.516;2022-10-22T00:09:57;29.02;;;19.92;;
47812;SDS011;34221;45.296;9.516;2022-10-22T00:10:13;31.45;;;21.40;;
47812;SDS011;34221;45.296;9.516;2022-10-22T00:10:30;27.98;;;20.45;;
47812;SDS011;34221;45.296;9.516;2022-10-22T00:10:46;29.85;;;20.73;;
47812;SDS011;34221;45.296;9.516;2022-10-22T00:11:08;31.60;;;21.02;;
47812;SDS011;34221;45.296;9.516;2022-10-22T00:11:28;28.58;;;20.90;;
47812;SDS011;34221;45.296;9.516;2022-10-22T00:11:44;28.15;;;20.58;;
47812;SDS011;34221;45.296;9.516;2022-10-22T00:11:59;28.17;;;20.02;;
47812;SDS011;34221;45.296;9.516;2022-10-22T00:12:15;29.10;;;20.52;;
47812;SDS011;34221;45.296;9.516;2022-10-22T00:12:30;29.67;;;21.17;;
47812;SDS011;34221;45.296;9.516;2022-10-22T00:12:45;29.50;;;21.50;;
47812;SDS011;34221;45.296;9.516;2022-10-22T00:13:00;28.88;;;21.27;;
47812;SDS011;34221;45.296;9.516;2022-10-22T00:13:16;30.60;;;21.35;;
47812;SDS011;34221;45.296;9.516;2022-10-22T00:13:32;30.90;;;20.92;;
47812;SDS011;34221;45.296;9.516;2022-10-22T00:13:47;31.83;;;20.70;;
47812;SDS011;34221;45.296;9.516;2022-10-22T00:14:03;34.45;;;21.30;;
47812;SDS011;34221;45.296;9.516;2022-10-22T00:14:19;33.30;;;20.10;;
47812;SDS011;34221;45.296;9.516;2022-10-22T00:14:34;30.27;;;19.90;;
47812;SDS011;34221;45.296;9.516;2022-10-22T00:14:50;28.30;;;20.27;;
47812;SDS011;34221;45.296;9.516;2022-10-22T00:15:05;28.50;;;20.45;;
47812;SDS011;34221;45.296;9.516;2022-10-22T00:15:21;32.13;;;20.65;;
47812;SDS011;34221;45.296;9.516;2022-10-22T00:15:37;33.00;;;21.02;;
47812;SDS011;34221;45.296;9.516;2022-10-22T00:15:53;32.83;;;21.25;;
47812;SDS011;34221;45.296;9.516;2022-10-22T00:16:08;33.55;;;21.20;;
47812;SDS011;34221;45.296;9.516;2022-10-22T00:16:23;29.60;;;20.48;;
47812;SDS011;34221;45.296;9.516;2022-10-22T00:16:38;28.35;;;20.17;;
47812;SDS011;34221;45.296;9.516;2022-10-22T00:16:54;29.27;;;20.77;;
47812;SDS011;34221;45.296;9.516;2022-10-22T00:17:09;29.10;;;20.33;;
47812;SDS011;34221;45.296;9.516;2022-10-22T00:17:25;30.73;;;20.67;;
47812;SDS011;34221;45.296;9.516;2022-10-22T00:17:41;33.55;;;21.33;;
47812;SDS011;34221;45.296;9.516;2022-10-22T00:17:56;32.50;;;20.80;;
47812;SDS011;34221;45.296;9.516;2022-10-22T00:18:11;33.30;;;20.40;;
47812;SDS011;34221;45.296;9.516;2022-10-22T00:18:26;33.85;;;19.92;;
47812;SDS011;34221;45.296;9.516;2022-10-22T00:18:43;28.80;;;19.50;;
47812;SDS011;34221;45.296;9.516;2022-10-22T00:18:58;29.77;;;19.40;;
47812;SDS011;34221;45.296;9.516;2022-10-22T00:19:13;30.77;;;19.75;;
47812;SDS011;34221;45.296;9.516;2022-10-22T00:19:28;29.13;;;20.00;;
47812;SDS011;34221;45.296;9.516;2022-10-22T00:19:44;27.63;;;19.65;;
47812;SDS011;34221;45.296;9.516;2022-10-22T00:20:00;25.65;;;19.55;;
47812;SDS011;34221;45.296;9.516;2022-10-22T00:20:15;28.13;;;19.45;;
47812;SDS011;34221;45.296;9.516;2022-10-22T00:20:30;27.85;;;18.75;;
47812;SDS011;34221;45.296;9.516;2022-10-22T00:20:46;27.65;;;19.10;;
47812;SDS011;34221;45.296;9.516;2022-10-22T00:21:01;28.45;;;19.83;;
47812;SDS011;34221;45.296;9.516;2022-10-22T00:21:17;27.60;;;20.05;;
47812;SDS011;34221;45.296;9.516;2022-10-22T00:21:32;28.33;;;20.33;;
47812;SDS011;34221;45.296;9.516;2022-10-22T00:21:47;27.75;;;19.60;;
47812;SDS011;34221;45.296;9.516;2022-10-22T00:22:02;28.15;;;20.02;;
47812;SDS011;34221;45.296;9.516;2022-10-22T00:22:19;29.30;;;20.90;;
47812;SDS011;34221;45.296;9.516;2022-10-22T00:22:34;30.50;;;20.80;;
47812;SDS011;34221;45.296;9.516;2022-10-22T00:22:49;30.30;;;20.27;;
47812;SDS011;34221;45.296;9.516;2022-10-22T00:23:04;27.52;;;19.77;;
47812;SDS011;34221;45.296;9.516;2022-10-22T00:23:20;27.92;;;20.35;;
47812;SDS011;34221;45.296;9.516;2022-10-22T00:23:35;31.17;;;20.02;;
47812;SDS011;34221;45.296;9.516;2022-10-22T00:23:54;29.55;;;19.58;;
47812;SDS011;34221;45.296;9.516;2022-10-22T00:24:09;28.05;;;19.77;;
47812;SDS011;34221;45.296;9.516;2022-10-22T00:24:30;29.10;;;20.02;;
47812;SDS011;34221;45.296;9.516;2022-10-22T00:24:47;27.90;;;19.80;;
47812;SDS011;34221;45.296;9.516;2022-10-22T00:25:02;30.23;;;19.88;;
47812;SDS011;34221;45.296;9.516;2022-10-22T00:25:17;30.40;;;19.50;;
47812;SDS011;34221;45.296;9.516;2022-10-22T00:25:33;30.23;;;19.77;;
47812;SDS011;34221;45.296;9.516;2022-10-22T00:26:09;27.55;;;20.00;;
47812;SDS011;34221;45.296;9.516;2022-10-22T00:26:25;27.95;;;20.13;;
47812;SDS011;34221;45.296;9.516;2022-10-22T00:26:42;30.87;;;20.57;;
47812;SDS011;34221;45.296;9.516;2022-10-22T00:26:57;29.02;;;19.85;;
47812;SDS011;34221;45.296;9.516;2022-10-22T00:27:13;27.25;;;19.83;;
47812;SDS011;34221;45.296;9.516;2022-10-22T00:27:29;29.60;;;20.15;;
47812;SDS011;34221;45.296;9.516;2022-10-22T00:27:45;30.88;;;20.25;;
47812;SDS011;34221;45.296;9.516;2022-10-22T00:28:01;29.98;;;20.60;;
47812;SDS011;34221;45.296;9.516;2022-10-22T00:28:16;31.08;;;21.10;;
47812;SDS011;34221;45.296;9.516;2022-10-22T00:28:32;32.28;;;21.30;;
47812;SDS011;34221;45.296;9.516;2022-10-22T00:28:47;32.83;;;21.20;;
47812;SDS011;34221;45.296;9.516;2022-10-22T00:29:02;33.88;;;21.40;;
47812;SDS011;34221;45.296;9.516;2022-10-22T00:29:17;30.85;;;20.98;;
47812;SDS011;34221;45.296;9.516;2022-10-22T00:29:34;29.88;;;19.60;;
47812;SDS011;34221;45.296;9.516;2022-10-22T00:29:49;30.27;;;19.75;;
47812;SDS011;34221;45.296;9.516;2022-10-22T00:30:05;29.85;;;20.48;;
47812;SDS011;34221;45.296;9.516;2022-10-22T00:30:21;30.55;;;20.50;;
47812;SDS011;34221;45.296;9.516;2022-10-22T00:30:36;29.45;;;19.73;;
47812;SDS011;34221;45.296;9.516;2022-10-22T00:30:55;27.67;;;19.55;;
47812;SDS011;34221;45.296;9.516;2022-10-22T00:31:11;31.02;;;20.35;;
47812;SDS011;34221;45.296;9.516;2022-10-22T00:31:28;26.70;;;18.88;;
47812;SDS011;34221;45.296;9.516;2022-10-22T00:31:44;26.50;;;19.15;;
47812;SDS011;34221;45.296;9.516;2022-10-22T00:32:03;25.63;;;19.40;;
47812;SDS011;34221;45.296;9.516;2022-10-22T00:32:19;28.15;;;19.63;;
47812;SDS011;34221;45.296;9.516;2022-10-22T00:32:34;29.77;;;19.77;;
47812;SDS011;34221;45.296;9.516;2022-10-22T00:32:50;28.77;;;19.67;;
47812;SDS011;34221;45.296;9.516;2022-10-22T00:33:05;30.48;;;20.30;;
47812;SDS011;34221;45.296;9.516;2022-10-22T00:33:20;31.30;;;20.10;;
47812;SDS011;34221;45.296;9.516;2022-10-22T00:33:35;29.85;;;19.85;;
47812;SDS011;34221;45.296;9.516;2022-10-22T00:33:52;27.25;;;19.27;;
47812;SDS011;34221;45.296;9.516;2022-10-22T00:34:07;27.80;;;19.20;;
47812;SDS011;34221;45.296;9.516;2022-10-22T00:34:22;29.40;;;19.98;;
47812;SDS011;34221;45.296;9.516;2022-10-22T00:34:38;33.50;;;19.90;;
47812;SDS011;34221;45.296;9.516;2022-10-22T00:34:53;32.65;;;20.08;;
47812;SDS011;34221;45.296;9.516;2022-10-22T00:35:09;30.50;;;20.13;;
47812;SDS011;34221;45.296;9.516;2022-10-22T00:35:24;28.75;;;19.40;;
47812;SDS011;34221;45.296;9.516;2022-10-22T00:35:39;25.92;;;19.10;;
47812;SDS011;34221;45.296;9.516;2022-10-22T00:35:54;26.92;;;19.10;;
47812;SDS011;34221;45.296;9.516;2022-10-22T00:36:10;26.08;;;19.50;;
47812;SDS011;34221;45.296;9.516;2022-10-22T00:36:25;24.45;;;19.15;;
47812;SDS011;34221;45.296;9.516;2022-10-22T00:36:42;26.60;;;18.70;;
47812;SDS011;34221;45.296;9.516;2022-10-22T00:36:57;28.45;;;19.40;;
47812;SDS011;34221;45.296;9.516;2022-10-22T00:37:12;30.30;;;19.88;;
47812;SDS011;34221;45.296;9.516;2022-10-22T00:37:27;30.48;;;19.77;;
47812;SDS011;34221;45.296;9.516;2022-10-22T00:37:43;30.77;;;20.50;;
47812;SDS011;34221;45.296;9.516;2022-10-22T00:37:58;29.50;;;20.13;;
47812;SDS011;34221;45.296;9.516;2022-10-22T00:38:14;28.98;;;19.63;;
47812;SDS011;34221;45.296;9.516;2022-10-22T00:38:29;29.10;;;19.48;;
47812;SDS011;34221;45.296;9.516;2022-10-22T00:38:44;26.77;;;19.15;;
47812;SDS011;34221;45.296;9.516;2022-10-22T00:39:00;28.27;;;20.02;;
47812;SDS011;34221;45.296;9.516;2022-10-22T00:39:15;30.25;;;20.27;;
47812;SDS011;34221;45.296;9.516;2022-10-22T00:39:34;30.55;;;20.05;;
47812;SDS011;34221;45.296;9.516;2022-10-22T00:39:49;27.80;;;19.65;;
47812;SDS011;34221;45.296;9.516;2022-10-22T00:40:05;29.95;;;20.05;;
47812;SDS011;34221;45.296;9.516;2022-10-22T00:40:21;29.17;;;19.60;;
47812;SDS011;34221;45.296;9.516;2022-10-22T00:40:36;29.85;;;19.50;;
47812;SDS011;34221;45.296;9.516;2022-10-22T00:40:51;30.73;;;19.73;;
47812;SDS011;34221;45.296;9.516;2022-10-22T00:41:06;29.27;;;19.25;;
47812;SDS011;34221;45.296;9.516;2022-10-22T00:41:22;29.15;;;19.15;;
47812;SDS011;34221;45.296;9.516;2022-10-22T00:41:38;29.10;;;19.13;;
47812;SDS011;34221;45.296;9.516;2022-10-22T00:41:54;30.83;;;19.75;;
47812;SDS011;34221;45.296;9.516;2022-10-22T00:42:12;27.33;;;19.58;;
47812;SDS011;34221;45.296;9.516;2022-10-22T00:42:33;27.17;;;19.33;;
47812;SDS011;34221;45.296;9.516;2022-10-22T00:42:49;26.45;;;19.35;;
47812;SDS011;34221;45.296;9.516;2022-10-22T00:43:04;27.60;;;19.35;;
47812;SDS011;34221;45.296;9.516;2022-10-22T00:43:19;29.17;;;19.30;;
47812;SDS011;34221;45.296;9.516;2022-10-22T00:43:51;28.73;;;19.08;;
47812;SDS011;34221;45.296;9.516;2022-10-22T00:45:35;28.95;;;19.42;;
47812;SDS011;34221;45.296;9.516;2022-10-22T00:45:50;26.75;;;19.52;;
47812;SDS011;34221;45.296;9.516;2022-10-22T00:46:05;25.58;;;18.88;;
47812;SDS011;34221;45.296;9.516;2022-10-22T00:46:20;26.50;;;17.77;;
47812;SDS011;34221;45.296;9.516;2022-10-22T00:46:36;29.33;;;17.85;;
47812;SDS011;34221;45.296;9.516;2022-10-22T00:46:51;28.77;;;18.27;;
47812;SDS011;34221;45.296;9.516;2022-10-22T00:47:06;29.25;;;19.05;;
47812;SDS011;34221;45.296;9.516;2022-10-22T00:47:21;29.67;;;19.15;;
47812;SDS011;34221;45.296;9.516;2022-10-22T00:48:04;27.38;;;18.17;;
47812;SDS011;34221;45.296;9.516;2022-10-22T00:48:28;27.08;;;18.13;;
47812;SDS011;34221;45.296;9.516;2022-10-22T00:48:49;27.05;;;17.70;;
47812;SDS011;34221;45.296;9.516;2022-10-22T00:49:05;27.30;;;17.80;;
47812;SDS011;34221;45.296;9.516;2022-10-22T00:49:21;27.88;;;19.00;;
47812;SDS011;34221;45.296;9.516;2022-10-22T00:49:36;28.95;;;19.67;;
47812;SDS011;34221;45.296;9.516;2022-10-22T00:49:51;26.42;;;18.77;;
47812;SDS011;34221;45.296;9.516;2022-10-22T00:50:12;26.98;;;18.60;;
47812;SDS011;34221;45.296;9.516;2022-10-22T00:50:53;30.33;;;18.25;;
47812;SDS011;34221;45.296;9.516;2022-10-22T00:51:12;26.20;;;18.58;;
47812;SDS011;34221;45.296;9.516;2022-10-22T00:51:29;27.80;;;18.63;;
47812;SDS011;34221;45.296;9.516;2022-10-22T00:51:47;24.33;;;17.88;;
47812;SDS011;34221;45.296;9.516;2022-10-22T00:52:02;23.85;;;17.92;;
47812;SDS011;34221;45.296;9.516;2022-10-22T00:52:18;29.20;;;18.13;;
47812;SDS011;34221;45.296;9.516;2022-10-22T00:52:34;31.02;;;18.83;;
47812;SDS011;34221;45.296;9.516;2022-10-22T00:52:50;29.95;;;19.08;;
47812;SDS011;34221;45.296;9.516;2022-10-22T00:53:07;31.67;;;19.33;;
47812;SDS011;34221;45.296;9.516;2022-10-22T00:53:29;27.05;;;18.80;;
47812;SDS011;34221;45.296;9.516;2022-10-22T00:53:49;24.95;;;18.02;;
47812;SDS011;34221;45.296;9.516;2022-10-22T00:54:09;25.52;;;17.65;;
47812;SDS011;34221;45.296;9.516;2022-10-22T00:54:25;25.48;;;17.55;;
47812;SDS011;34221;45.296;9.516;2022-10-22T00:54:40;27.73;;;18.52;;
47812;SDS011;34221;45.296;9.516;2022-10-22T00:54:56;28.63;;;18.65;;
47812;SDS011;34221;45.296;9.516;2022-10-22T00:55:12;27.77;;;18.88;;
47812;SDS011;34221;45.296;9.516;2022-10-22T00:55:28;24.15;;;18.08;;
47812;SDS011;34221;45.296;9.516;2022-10-22T00:55:45;24.15;;;17.83;;
47812;SDS011;34221;45.296;9.516;2022-10-22T00:56:05;28.42;;;18.65;;
47812;SDS011;34221;45.296;9.516;2022-10-22T00:56:22;31.00;;;19.05;;
47812;SDS011;34221;45.296;9.516;2022-10-22T00:56:38;29.65;;;19.40;;
47812;SDS011;34221;45.296;9.516;2022-10-22T00:56:54;28.75;;;18.40;;
47812;SDS011;34221;45.296;9.516;2022-10-22T00:57:09;29.08;;;17.55;;
47812;SDS011;34221;45.296;9.516;2022-10-22T00:57:25;32.42;;;18.42;;
47812;SDS011;34221;45.296;9.516;2022-10-22T00:57:41;30.38;;;18.63;;
47812;SDS011;34221;45.296;9.516;2022-10-22T00:57:56;28.58;;;19.27;;
47812;SDS011;34221;45.296;9.516;2022-10-22T00:58:12;28.90;;;19.45;;
47812;SDS011;34221;45.296;9.516;2022-10-22T00:58:30;26.67;;;18.33;;
47812;SDS011;34221;45.296;9.516;2022-10-22T00:58:51;25.73;;;17.95;;
47812;SDS011;34221;45.296;9.516;2022-10-22T00:59:09;29.67;;;18.67;;
47812;SDS011;34221;45.296;9.516;2022-10-22T00:59:27;30.58;;;19.40;;
47812;SDS011;34221;45.296;9.516;2022-10-22T00:59:44;28.35;;;19.08;;
47812;SDS011;34221;45.296;9.516;2022-10-22T01:00:00;29.38;;;19.30;;
47812;SDS011;34221;45.296;9.516;2022-10-22T01:00:17;29.70;;;18.30;;
47812;SDS011;34221;45.296;9.516;2022-10-22T01:00:33;30.77;;;18.58;;
47812;SDS011;34221;45.296;9.516;2022-10-22T01:00:48;29.02;;;18.95;;
47812;SDS011;34221;45.296;9.516;2022-10-22T01:01:04;27.40;;;19.20;;
47812;SDS011;34221;45.296;9.516;2022-10-22T01:01:23;26.70;;;19.38;;
47812;SDS011;34221;45.296;9.516;2022-10-22T01:01:42;31.52;;;18.75;;
47812;SDS011;34221;45.296;9.516;2022-10-22T01:01:58;30.60;;;18.70;;
47812;SDS011;34221;45.296;9.516;2022-10-22T01:02:14;25.33;;;18.60;;
47812;SDS011;34221;45.296;9.516;2022-10-22T01:02:29;27.55;;;18.65;;
47812;SDS011;34221;45.296;9.516;2022-10-22T01:02:45;25.77;;;17.73;;
47812;SDS011;34221;45.296;9.516;2022-10-22T01:03:03;26.88;;;18.25;;
47812;SDS011;34221;45.296;9.516;2022-10-22T01:03:18;32.47;;;19.63;;
47812;SDS011;34221;45.296;9.516;2022-10-22T01:03:33;32.92;;;19.58;;
47812;SDS011;34221;45.296;9.516;2022-10-22T01:03:48;33.03;;;19.45;;
47812;SDS011;34221;45.296;9.516;2022-10-22T01:04:04;31.42;;;19.10;;
47812;SDS011;34221;45.296;9.516;2022-10-22T01:04:20;27.33;;;19.15;;
47812;SDS011;34221;45.296;9.516;2022-10-22T01:04:35;27.65;;;19.77;;
47812;SDS011;34221;45.296;9.516;2022-10-22T01:04:50;29.05;;;19.52;;
47812;SDS011;34221;45.296;9.516;2022-10-22T01:05:05;29.20;;;18.92;;
47812;SDS011;34221;45.296;9.516;2022-10-22T01:05:21;29.67;;;18.15;;
47812;SDS011;34221;45.296;9.516;2022-10-22T01:05:53;28.70;;;18.40;;
47812;SDS011;34221;45.296;9.516;2022-10-22T01:06:14;30.15;;;18.60;;
47812;SDS011;34221;45.296;9.516;2022-10-22T01:06:44;25.65;;;18.33;;
47812;SDS011;34221;45.296;9.516;2022-10-22T01:07:00;24.85;;;18.13;;
47812;SDS011;34221;45.296;9.516;2022-10-22T01:07:18;26.25;;;18.65;;
47812;SDS011;34221;45.296;9.516;2022-10-22T01:07:37;25.58;;;18.15;;
47812;SDS011;34221;45.296;9.516;2022-10-22T01:07:59;29.15;;;18.58;;
47812;SDS011;34221;45.296;9.516;2022-10-22T01:11:19;27.10;;;18.35;;
47812;SDS011;34221;45.296;9.516;2022-10-22T01:11:56;25.92;;;17.67;;
47812;SDS011;34221;45.296;9.516;2022-10-22T01:16:01;25.33;;;18.27;;
47812;SDS011;34221;45.296;9.516;2022-10-22T01:17:46;27.05;;;19.08;;
47812;SDS011;34221;45.296;9.516;2022-10-22T01:18:35;27.77;;;17.65;;
47812;SDS011;34221;45.296;9.516;2022-10-22T01:19:39;28.15;;;18.67;;
47812;SDS011;34221;45.296;9.516;2022-10-22T01:20:21;26.45;;;19.05;;
47812;SDS011;34221;45.296;9.516;2022-10-22T01:21:08;32.78;;;19.75;;
47812;SDS011;34221;45.296;9.516;2022-10-22T01:22:23;28.58;;;18.83;;
47812;SDS011;34221;45.296;9.516;2022-10-22T01:25:53;28.58;;;18.02;;
47812;SDS011;34221;45.296;9.516;2022-10-22T01:27:51;27.15;;;19.00;;
47812;SDS011;34221;45.296;9.516;2022-10-22T01:29:00;29.00;;;18.70;;
47812;SDS011;34221;45.296;9.516;2022-10-22T01:29:21;27.02;;;17.90;;
47812;SDS011;34221;45.296;9.516;2022-10-22T01:29:47;30.75;;;19.02;;
47812;SDS011;34221;45.296;9.516;2022-10-22T01:30:11;28.38;;;19.70;;
47812;SDS011;34221;45.296;9.516;2022-10-22T01:30:28;26.85;;;18.98;;
47812;SDS011;34221;45.296;9.516;2022-10-22T01:30:43;27.25;;;19.48;;
47812;SDS011;34221;45.296;9.516;2022-10-22T01:30:59;28.02;;;19.20;;
47812;SDS011;34221;45.296;9.516;2022-10-22T01:31:16;28.35;;;18.73;;
47812;SDS011;34221;45.296;9.516;2022-10-22T01:31:33;27.60;;;18.98;;
47812;SDS011;34221;45.296;9.516;2022-10-22T01:31:58;25.25;;;18.27;;
47812;SDS011;34221;45.296;9.516;2022-10-22T01:32:21;29.35;;;19.50;;
47812;SDS011;34221;45.296;9.516;2022-10-22T01:32:40;30.35;;;19.52;;
47812;SDS011;34221;45.296;9.516;2022-10-22T01:33:04;28.35;;;18.17;;
47812;SDS011;34221;45.296;9.516;2022-10-22T01:33:22;30.95;;;18.85;;
47812;SDS011;34221;45.296;9.516;2022-10-22T01:33:39;29.15;;;19.35;;
47812;SDS011;34221;45.296;9.516;2022-10-22T01:33:55;27.98;;;18.50;;
47812;SDS011;34221;45.296;9.516;2022-10-22T01:34:14;25.80;;;18.15;;
47812;SDS011;34221;45.296;9.516;2022-10-22T01:34:31;30.23;;;19.10;;
47812;SDS011;34221;45.296;9.516;2022-10-22T01:34:49;31.75;;;19.48;;
47812;SDS011;34221;45.296;9.516;2022-10-22T01:35:14;28.15;;;18.95;;
47812;SDS011;34221;45.296;9.516;2022-10-22T01:35:36;29.80;;;19.70;;
47812;SDS011;34221;45.296;9.516;2022-10-22T01:35:56;28.67;;;19.55;;
47812;SDS011;34221;45.296;9.516;2022-10-22T01:36:13;27.83;;;19.38;;
47812;SDS011;34221;45.296;9.516;2022-10-22T01:36:29;28.33;;;19.02;;
47812;SDS011;34221;45.296;9.516;2022-10-22T01:36:46;28.40;;;18.33;;
47812;SDS011;34221;45.296;9.516;2022-10-22T01:37:03;26.30;;;17.95;;
47812;SDS011;34221;45.296;9.516;2022-10-22T01:37:18;25.63;;;18.48;;
47812;SDS011;34221;45.296;9.516;2022-10-22T01:37:47;27.45;;;19.48;;
47812;SDS011;34221;45.296;9.516;2022-10-22T01:38:09;25.23;;;17.95;;
47812;SDS011;34221;45.296;9.516;2022-10-22T01:38:29;27.77;;;18.65;;
47812;SDS011;34221;45.296;9.516;2022-10-22T01:38:46;27.80;;;19.20;;
47812;SDS011;34221;45.296;9.516;2022-10-22T01:39:03;26.75;;;19.02;;
47812;SDS011;34221;45.296;9.516;2022-10-22T01:39:20;26.50;;;18.55;;
47812;SDS011;34221;45.296;9.516;2022-10-22T01:39:37;26.70;;;18.25;;
47812;SDS011;34221;45.296;9.516;2022-10-22T01:39:56;31.55;;;19.42;;
47812;SDS011;34221;45.296;9.516;2022-10-22T01:40:14;33.25;;;19.35;;
47812;SDS011;34221;45.296;9.516;2022-10-22T01:40:30;29.05;;;18.67;;
47812;SDS011;34221;45.296;9.516;2022-10-22T01:40:47;26.67;;;18.00;;
47812;SDS011;34221;45.296;9.516;2022-10-22T01:41:04;25.30;;;17.88;;
47812;SDS011;34221;45.296;9.516;2022-10-22T01:41:21;26.25;;;18.30;;
47812;SDS011;34221;45.296;9.516;2022-10-22T01:41:38;26.40;;;18.10;;
47812;SDS011;34221;45.296;9.516;2022-10-22T01:41:55;25.75;;;18.27;;
47812;SDS011;34221;45.296;9.516;2022-10-22T01:42:11;25.17;;;18.08;;
47812;SDS011;34221;45.296;9.516;2022-10-22T01:42:27;25.37;;;17.70;;
47812;SDS011;34221;45.296;9.516;2022-10-22T01:42:52;25.05;;;17.25;;
47812;SDS011;34221;45.296;9.516;2022-10-22T01:43:11;29.15;;;18.48;;
47812;SDS011;34221;45.296;9.516;2022-10-22T01:43:27;30.35;;;18.58;;
47812;SDS011;34221;45.296;9.516;2022-10-22T01:43:42;27.73;;;18.23;;
47812;SDS011;34221;45.296;9.516;2022-10-22T01:43:58;29.02;;;19.05;;
47812;SDS011;34221;45.296;9.516;2022-10-22T01:44:23;27.42;;;19.27;;
47812;SDS011;34221;45.296;9.516;2022-10-22T01:44:44;28.63;;;18.63;;
47812;SDS011;34221;45.296;9.516;2022-10-22T01:45:07;27.45;;;18.17;;
47812;SDS011;34221;45.296;9.516;2022-10-22T01:45:27;26.52;;;19.30;;
47812;SDS011;34221;45.296;9.516;2022-10-22T01:45:49;27.48;;;18.60;;
47812;SDS011;34221;45.296;9.516;2022-10-22T01:46:09;26.55;;;18.00;;
47812;SDS011;34221;45.296;9.516;2022-10-22T01:46:26;23.07;;;17.80;;
47812;SDS011;34221;45.296;9.516;2022-10-22T01:46:42;23.25;;;18.00;;
47812;SDS011;34221;45.296;9.516;2022-10-22T01:48:25;25.85;;;19.00;;
47812;SDS011;34221;45.296;9.516;2022-10-22T01:49:27;29.00;;;19.20;;
47812;SDS011;34221;45.296;9.516;2022-10-22T01:52:09;30.52;;;19.85;;
47812;SDS011;34221;45.296;9.516;2022-10-22T01:55:14;26.08;;;18.23;;
47812;SDS011;34221;45.296;9.516;2022-10-22T01:57:18;29.02;;;18.98;;
47812;SDS011;34221;45.296;9.516;2022-10-22T01:59:01;25.23;;;18.55;;
47812;SDS011;34221;45.296;9.516;2022-10-22T01:59:43;27.45;;;18.65;;
47812;SDS011;34221;45.296;9.516;2022-10-22T02:00:21;26.83;;;18.80;;
47812;SDS011;34221;45.296;9.516;2022-10-22T02:00:37;27.30;;;18.77;;
47812;SDS011;34221;45.296;9.516;2022-10-22T02:00:59;27.88;;;18.95;;
47812;SDS011;34221;45.296;9.516;2022-10-22T02:02:48;27.20;;;18.67;;
47812;SDS011;34221;45.296;9.516;2022-10-22T02:03:23;28.00;;;18.90;;
47812;SDS011;34221;45.296;9.516;2022-10-22T02:04:06;25.00;;;17.77;;
47812;SDS011;34221;45.296;9.516;2022-10-22T02:04:48;27.00;;;17.85;;
47812;SDS011;34221;45.296;9.516;2022-10-22T02:05:45;29.40;;;19.00;;
47812;SDS011;34221;45.296;9.516;2022-10-22T02:06:06;30.40;;;19.15;;
47812;SDS011;34221;45.296;9.516;2022-10-22T02:06:29;32.13;;;19.25;;
47812;SDS011;34221;45.296;9.516;2022-10-22T02:06:47;27.33;;;18.10;;
47812;SDS011;34221;45.296;9.516;2022-10-22T02:07:06;25.17;;;18.55;;
47812;SDS011;34221;45.296;9.516;2022-10-22T02:07:26;26.40;;;18.63;;
47812;SDS011;34221;45.296;9.516;2022-10-22T02:07:48;26.73;;;18.13;;
47812;SDS011;34221;45.296;9.516;2022-10-22T02:08:16;25.77;;;17.75;;
47812;SDS011;34221;45.296;9.516;2022-10-22T02:08:37;25.33;;;18.75;;
47812;SDS011;34221;45.296;9.516;2022-10-22T02:08:53;26.95;;;18.13;;
47812;SDS011;34221;45.296;9.516;2022-10-22T02:09:09;27.45;;;17.83;;
47812;SDS011;34221;45.296;9.516;2022-10-22T02:09:28;25.60;;;17.67;;
47812;SDS011;34221;45.296;9.516;2022-10-22T02:09:45;26.13;;;17.35;;
47812;SDS011;34221;45.296;9.516;2022-10-22T02:10:02;26.67;;;17.50;;
47812;SDS011;34221;45.296;9.516;2022-10-22T02:10:20;25.85;;;17.60;;
47812;SDS011;34221;45.296;9.516;2022-10-22T02:10:37;28.27;;;18.25;;
47812;SDS011;34221;45.296;9.516;2022-10-22T02:10:55;28.75;;;18.40;;
47812;SDS011;34221;45.296;9.516;2022-10-22T02:11:12;27.42;;;18.58;;
47812;SDS011;34221;45.296;9.516;2022-10-22T02:11:28;28.88;;;18.90;;
47812;SDS011;34221;45.296;9.516;2022-10-22T02:11:44;27.42;;;18.77;;
47812;SDS011;34221;45.296;9.516;2022-10-22T02:12:01;27.23;;;18.58;;
47812;SDS011;34221;45.296;9.516;2022-10-22T02:12:20;26.77;;;18.63;;
47812;SDS011;34221;45.296;9.516;2022-10-22T02:12:37;27.75;;;18.48;;
47812;SDS011;34221;45.296;9.516;2022-10-22T02:12:55;25.38;;;18.58;;
47812;SDS011;34221;45.296;9.516;2022-10-22T02:13:14;25.10;;;18.20;;
47812;SDS011;34221;45.296;9.516;2022-10-22T02:13:43;24.55;;;17.83;;
47812;SDS011;34221;45.296;9.516;2022-10-22T02:14:02;27.77;;;18.30;;
47812;SDS011;34221;45.296;9.516;2022-10-22T02:14:20;29.05;;;18.77;;